Time;durP1;ratioP1;P1;durP2;ratioP2;P2;SDS_P1;SDS_P2;PMS_P1;PMS_P2;Temp;Humidity;BMP_temperature;BMP_pressure;BME280_temperature;BME280_humidity;BME280_pressure;Samples;Min_cycle;Max_cycle;Signal;HPM_P1;HPM_P2
2022/09/07 00:00:41;;;;;;;12.27;2.58;;;;;;;16.73;59.65;101290.88;5010779;28;20022;-72
2022/09/07 00:03:06;;;;;;;10.75;2.33;;;;;;;16.70;60.01;101283.06;5012817;28;20053;-72
2022/09/07 00:05:32;;;;;;;6.95;1.90;;;;;;;16.80;59.40;101286.34;5028267;28;20022;-73
2022/09/07 00:07:58;;;;;;;3.03;1.75;;;;;;;16.74;59.81;101298.03;5011836;28;20030;-73
2022/09/07 00:10:24;;;;;;;7.68;2.13;;;;;;;16.78;59.76;101298.53;5040272;28;20029;-74
2022/09/07 00:12:51;;;;;;;7.43;2.08;;;;;;;16.76;59.85;101311.56;5042678;28;20029;-73
2022/09/07 00:15:17;;;;;;;5.78;1.90;;;;;;;16.77;59.69;101296.84;5014870;28;20107;-73
2022/09/07 00:17:42;;;;;;;11.98;2.30;;;;;;;16.88;59.16;101310.03;5033857;28;20116;-73
2022/09/07 00:20:09;;;;;;;11.50;2.40;;;;;;;16.79;59.69;101306.53;5030016;28;20029;-73
2022/09/07 00:22:35;;;;;;;8.48;2.22;;;;;;;16.84;59.74;101292.31;5014835;28;20013;-73
2022/09/07 00:25:01;;;;;;;7.85;2.17;;;;;;;16.82;59.56;101294.34;5012346;28;20028;-73
2022/09/07 00:27:26;;;;;;;5.63;2.20;;;;;;;16.72;60.04;101293.81;5017167;28;20017;-73
2022/09/07 00:29:51;;;;;;;14.98;2.50;;;;;;;16.77;59.88;101291.38;5015909;28;20029;-73
2022/09/07 00:32:17;;;;;;;16.83;2.28;;;;;;;16.80;59.57;101280.03;5027246;28;20109;-73
2022/09/07 00:34:42;;;;;;;9.18;2.08;;;;;;;16.65;60.26;101279.16;5036498;28;20068;-72
2022/09/07 00:37:08;;;;;;;7.60;2.45;;;;;;;16.61;60.17;101280.56;5034258;28;20041;-73
2022/09/07 00:39:34;;;;;;;6.53;2.33;;;;;;;16.71;59.95;101278.44;5029703;28;20112;-73
2022/09/07 00:42:00;;;;;;;11.85;2.30;;;;;;;16.54;60.57;101272.28;5009315;28;20022;-73
2022/09/07 00:44:41;;;;;;;3.60;1.92;;;;;;;16.66;60.13;101278.97;5011354;28;20562;-73
2022/09/07 00:47:08;;;;;;;12.48;2.00;;;;;;;16.62;59.80;101277.63;5010004;28;20033;-72
2022/09/07 00:49:34;;;;;;;4.95;2.50;;;;;;;16.55;60.31;101266.59;5009449;28;20029;-72
2022/09/07 00:52:04;;;;;;;7.60;2.20;;;;;;;16.46;60.82;101253.22;5027269;28;20022;-73
2022/09/07 00:54:40;;;;;;;7.97;2.03;;;;;;;16.51;60.49;101248.91;5012992;28;20076;-73
2022/09/07 00:57:06;;;;;;;9.40;2.80;;;;;;;16.36;61.03;101250.75;5013942;28;20017;-73
2022/09/07 00:59:38;;;;;;;4.35;2.08;;;;;;;16.29;60.98;101250.66;5025420;28;20018;-72
2022/09/07 01:02:04;;;;;;;;;;;;;;;16.31;61.04;101252.38;5009678;28;20049;-73
2022/09/07 01:04:31;;;;;;;3.10;1.98;;;;;;;16.31;60.95;101253.22;5009369;28;20516;-73
2022/09/07 01:06:58;;;;;;;3.33;1.92;;;;;;;16.49;60.63;101259.16;5019222;28;20022;-73
2022/09/07 01:09:25;;;;;;;4.57;1.80;;;;;;;16.42;60.54;101260.94;5013517;28;20032;-73
2022/09/07 01:11:52;;;;;;;9.27;1.98;;;;;;;16.36;60.68;101261.69;5032906;28;20021;-73
2022/09/07 01:14:23;;;;;;;3.67;1.90;;;;;;;16.33;60.75;101256.59;5009847;28;20014;-73
2022/09/07 01:17:07;;;;;;;9.20;2.30;;;;;;;16.38;60.57;101254.16;5016275;28;20075;-73
2022/09/07 01:19:57;;;;;;;8.93;2.25;;;;;;;16.47;60.35;101250.31;5013371;28;20084;-72
2022/09/07 01:23:11;;;;;;;10.10;2.28;;;;;;;16.45;60.43;101249.66;5027391;28;20022;-75
2022/09/07 01:25:58;;;;;;;6.65;1.75;;;;;;;16.40;60.39;101251.25;5016515;28;20115;-72
2022/09/07 01:28:31;;;;;;;4.55;2.30;;;;;;;16.48;60.21;101238.31;5028159;28;20022;-74
2022/09/07 01:31:03;;;;;;;10.82;2.45;;;;;;;16.35;60.71;101238.13;5024944;28;20056;-72
2022/09/07 01:33:39;;;;;;;11.95;2.20;;;;;;;16.41;60.49;101237.38;5008937;28;20034;-72
2022/09/07 01:36:32;;;;;;;8.35;2.20;;;;;;;16.54;59.90;101232.09;5011655;28;20079;-73
2022/09/07 01:39:00;;;;;;;7.25;2.25;;;;;;;16.39;60.41;101239.47;5011167;28;20033;-72
2022/09/07 01:41:34;;;;;;;8.88;2.45;;;;;;;16.38;60.47;101232.31;5031632;28;20076;-73
2022/09/07 01:44:25;;;;;;;7.63;2.17;;;;;;;16.32;60.67;101233.06;5030732;28;20017;-73
2022/09/07 01:46:59;;;;;;;4.35;2.10;;;;;;;16.48;60.30;101232.84;5021455;28;20378;-72
2022/09/07 01:49:35;;;;;;;9.57;2.35;;;;;;;16.54;59.68;101225.78;5008322;28;20470;-73
2022/09/07 01:52:06;;;;;;;7.65;2.42;;;;;;;16.53;59.73;101224.94;5030815;28;20079;-73
2022/09/07 01:54:37;;;;;;;5.78;2.25;;;;;;;16.34;60.30;101220.03;5015607;28;20022;-73
2022/09/07 01:57:11;;;;;;;8.63;2.08;;;;;;;16.52;59.71;101211.47;5015168;28;20018;-73
2022/09/07 01:59:42;;;;;;;4.40;2.30;;;;;;;16.50;59.76;101203.47;5024230;28;20077;-74
2022/09/07 02:02:13;;;;;;;9.10;2.40;;;;;;;16.49;59.75;101207.22;5009430;28;20478;-72
2022/09/07 02:04:57;;;;;;;8.10;1.90;;;;;;;16.44;59.90;101215.16;5004958;28;20058;-72
2022/09/07 02:07:44;;;;;;;7.95;2.50;;;;;;;16.61;59.13;101214.94;5024052;28;20057;-72
2022/09/07 02:10:34;;;;;;;13.10;2.70;;;;;;;16.43;59.61;101213.47;5012760;28;20448;-72
2022/09/07 02:13:19;;;;;;;9.70;2.05;;;;;;;16.54;59.62;101214.84;5007768;28;20017;-72
2022/09/07 02:16:09;;;;;;;4.38;2.10;;;;;;;16.61;59.31;101220.41;5007763;28;20068;-72
2022/09/07 02:18:42;;;;;;;6.30;2.60;;;;;;;16.75;58.58;101227.78;5007721;28;20026;-73
2022/09/07 02:21:09;;;;;;;15.85;2.53;;;;;;;16.54;59.60;101210.25;5007582;28;20109;-73
2022/09/07 02:23:42;;;;;;;4.72;2.42;;;;;;;16.67;58.67;101220.50;5028226;28;20026;-72
2022/09/07 02:26:14;;;;;;;13.93;2.67;;;;;;;16.71;58.69;101221.88;5015087;28;20502;-72
2022/09/07 02:28:39;;;;;;;14.00;2.80;;;;;;;16.60;59.02;101229.66;5035012;28;20098;-72
2022/09/07 02:31:05;;;;;;;6.05;2.00;;;;;;;16.57;59.09;101219.13;5009949;28;20030;-75
2022/09/07 02:33:31;;;;;;;4.40;2.58;;;;;;;16.64;59.07;101217.31;5013838;28;20080;-71
2022/09/07 02:35:56;;;;;;;4.95;2.58;;;;;;;16.58;59.39;101209.88;5012060;28;20363;-72
2022/09/07 02:38:22;;;;;;;7.95;2.35;;;;;;;16.51;59.42;101210.63;5023543;28;20101;-72
2022/09/07 02:40:52;;;;;;;10.00;2.58;;;;;;;16.75;58.47;101211.38;5014380;28;20033;-72
2022/09/07 02:43:20;;;;;;;9.68;2.60;;;;;;;16.53;59.29;101203.09;5007677;28;20601;-72
2022/09/07 02:46:04;;;;;;;12.73;2.80;;;;;;;16.49;59.51;101207.22;5025897;28;20033;-72
2022/09/07 02:48:40;;;;;;;6.80;2.20;;;;;;;16.48;59.22;101205.53;5009864;28;20073;-71
2022/09/07 02:51:25;;;;;;;5.60;2.80;;;;;;;16.43;59.80;101208.00;5011926;28;20122;-72
2022/09/07 02:53:58;;;;;;;8.60;2.67;;;;;;;16.42;59.84;101202.69;5015149;28;20410;-72
2022/09/07 02:56:45;;;;;;;7.65;3.05;;;;;;;16.47;59.67;101192.91;5014443;28;20026;-71
2022/09/07 02:59:22;;;;;;;8.85;2.60;;;;;;;16.48;59.67;101200.06;5014060;28;20022;-73
2022/09/07 03:02:03;;;;;;;5.68;2.58;;;;;;;16.73;58.88;101206.13;5075357;22;20409;-70
2022/09/07 03:04:40;;;;;;;7.47;2.45;;;;;;;16.73;58.84;101197.06;4991819;28;20057;-70
2022/09/07 03:07:14;;;;;;;6.40;2.45;;;;;;;16.61;58.91;101198.56;4992044;28;20037;-70
2022/09/07 03:09:45;;;;;;;8.63;2.58;;;;;;;16.53;59.48;101197.63;4996753;28;20034;-70
2022/09/07 03:12:11;;;;;;;8.23;2.47;;;;;;;16.47;59.67;101192.06;5014699;28;20027;-70
2022/09/07 03:14:39;;;;;;;8.00;3.17;;;;;;;16.38;59.94;101193.19;4995065;28;20023;-70
2022/09/07 03:17:06;;;;;;;4.40;2.45;;;;;;;16.54;59.42;101188.38;5010174;28;20034;-70
2022/09/07 03:19:31;;;;;;;15.68;2.92;;;;;;;16.40;59.78;101181.03;4990687;28;20466;-70
2022/09/07 03:21:56;;;;;;;17.63;2.50;;;;;;;16.31;60.02;101182.19;4995059;28;20033;-70
2022/09/07 03:24:22;;;;;;;6.13;2.95;;;;;;;16.43;59.86;101186.13;4998501;28;20030;-70
2022/09/07 03:26:49;;;;;;;7.32;3.28;;;;;;;16.32;59.97;101183.88;4997049;28;20029;-70
2022/09/07 03:29:15;;;;;;;11.25;3.05;;;;;;;16.44;60.03;101176.91;4994901;28;20050;-70
2022/09/07 03:31:40;;;;;;;6.65;2.67;;;;;;;16.44;59.73;101174.16;4994880;28;20057;-70
2022/09/07 03:34:06;;;;;;;7.10;2.78;;;;;;;16.50;59.73;101167.94;5000405;28;20052;-70
2022/09/07 03:36:32;;;;;;;9.50;2.92;;;;;;;16.42;59.75;101162.56;4998719;28;20022;-69
2022/09/07 03:38:58;;;;;;;17.17;3.17;;;;;;;16.30;60.12;101158.63;5000648;28;20026;-69
2022/09/07 03:41:25;;;;;;;9.23;3.53;;;;;;;16.30;60.24;101153.16;4995789;28;20537;-69
2022/09/07 03:43:50;;;;;;;8.98;2.80;;;;;;;16.21;60.69;101159.72;4994238;28;20030;-69
2022/09/07 03:46:19;;;;;;;6.53;2.88;;;;;;;16.13;60.63;101157.09;4995678;28;20022;-69
2022/09/07 03:48:46;;;;;;;15.50;3.38;;;;;;;16.05;60.87;101149.00;5006652;28;20105;-69
2022/09/07 03:51:13;;;;;;;8.57;3.40;;;;;;;16.26;60.22;101146.38;5011911;28;20018;-69
2022/09/07 03:53:41;;;;;;;10.45;3.60;;;;;;;16.34;60.22;101154.47;4999815;28;20034;-69
2022/09/07 03:56:08;;;;;;;8.52;2.95;;;;;;;16.27;60.30;101148.06;4996064;28;20086;-69
2022/09/07 03:58:34;;;;;;;7.88;3.30;;;;;;;16.20;60.33;101136.19;4998736;28;20038;-69
2022/09/07 04:01:05;;;;;;;7.30;3.03;;;;;;;16.24;60.51;101132.06;4999549;28;20156;-69
2022/09/07 04:03:30;;;;;;;11.02;3.28;;;;;;;16.14;60.78;101126.00;5015369;28;20112;-69
2022/09/07 04:06:00;;;;;;;10.75;3.65;;;;;;;15.99;60.96;101124.13;4996204;28;20499;-69
2022/09/07 04:08:27;;;;;;;9.07;4.75;;;;;;;16.17;60.56;101121.03;5017427;28;20029;-69
2022/09/07 04:10:56;;;;;;;9.50;3.50;;;;;;;16.01;61.14;101127.50;5011840;28;20045;-69
2022/09/07 04:13:21;;;;;;;7.03;3.08;;;;;;;16.15;60.69;101122.25;5009661;28;20161;-69
2022/09/07 04:15:46;;;;;;;9.23;3.70;;;;;;;16.05;61.17;101128.00;5004193;28;20057;-69
2022/09/07 04:18:12;;;;;;;19.90;4.20;;;;;;;16.01;61.00;101116.59;4994008;28;20068;-69
2022/09/07 04:20:37;;;;;;;17.52;3.80;;;;;;;16.01;61.16;101111.13;4998290;28;20061;-69
2022/09/07 04:23:02;;;;;;;8.90;4.00;;;;;;;16.13;60.65;101107.94;5001676;28;20435;-69
2022/09/07 04:25:28;;;;;;;11.80;3.70;;;;;;;16.13;61.04;101097.84;4999528;28;20049;-69
2022/09/07 04:27:55;;;;;;;8.93;3.38;;;;;;;16.10;61.03;101091.91;4993328;28;20077;-69
2022/09/07 04:30:21;;;;;;;9.65;3.70;;;;;;;16.14;60.75;101093.22;4996201;28;20025;-69
2022/09/07 04:32:46;;;;;;;24.30;4.10;;;;;;;16.22;60.86;101090.38;4997975;28;20030;-69
2022/09/07 04:35:12;;;;;;;7.38;4.20;;;;;;;16.08;61.10;101094.00;4995227;28;20023;-69
2022/09/07 04:37:38;;;;;;;18.13;4.28;;;;;;;16.15;60.99;101094.91;5009236;28;20348;-69
2022/09/07 04:40:04;;;;;;;9.77;4.45;;;;;;;16.15;60.75;101094.91;4994510;28;20022;-69
2022/09/07 04:42:29;;;;;;;15.93;4.20;;;;;;;16.07;60.88;101103.22;4994293;28;20442;-69
2022/09/07 04:44:55;;;;;;;11.20;4.25;;;;;;;16.13;60.79;101097.00;4994045;28;20525;-69
2022/09/07 04:47:20;;;;;;;17.95;4.72;;;;;;;16.04;61.03;101098.13;4984240;28;20025;-69
2022/09/07 04:49:50;;;;;;;9.27;4.60;;;;;;;16.15;60.78;101094.91;4997801;28;20026;-69
2022/09/07 04:52:16;;;;;;;14.75;4.93;;;;;;;15.99;61.12;101096.81;4993997;28;20042;-70
2022/09/07 04:54:42;;;;;;;10.45;4.50;;;;;;;15.99;61.02;101113.22;4991299;28;20033;-69
2022/09/07 04:57:09;;;;;;;24.48;5.18;;;;;;;16.15;60.63;101122.25;4999488;28;20026;-69
2022/09/07 04:59:35;;;;;;;16.77;4.55;;;;;;;16.11;60.63;101131.88;4994382;28;20052;-69
2022/09/07 05:02:00;;;;;;;11.85;4.65;;;;;;;16.34;60.07;101148.16;4999130;28;20100;-70
2022/09/07 05:04:25;;;;;;;13.18;4.60;;;;;;;16.25;60.20;101150.97;5001426;28;20031;-70
2022/09/07 05:06:52;;;;;;;12.32;4.70;;;;;;;16.20;60.07;101169.81;4997286;28;20037;-70
2022/09/07 05:09:18;;;;;;;14.52;4.50;;;;;;;16.18;60.24;101192.91;4991791;28;20478;-69
2022/09/07 05:11:43;;;;;;;9.50;4.38;;;;;;;16.14;60.53;101219.75;4995282;28;20060;-69
2022/09/07 05:14:09;;;;;;;10.20;4.65;;;;;;;16.15;60.67;101226.06;4998335;28;20026;-69
2022/09/07 05:16:35;;;;;;;11.60;4.20;;;;;;;16.23;60.30;101236.88;4995975;28;20395;-69
2022/09/07 05:19:02;;;;;;;11.95;3.92;;;;;;;16.36;60.28;101228.91;4995982;28;20109;-69
2022/09/07 05:21:30;;;;;;;11.93;4.38;;;;;;;16.53;59.93;101197.63;4987670;28;20041;-69
2022/09/07 05:23:57;;;;;;;19.35;5.18;;;;;;;16.63;59.76;101212.91;4995115;28;20029;-69
2022/09/07 05:26:26;;;;;;;6.22;3.53;;;;;;;16.32;60.77;101238.53;5000161;28;20033;-69
2022/09/07 05:28:51;;;;;;;17.15;4.10;;;;;;;16.40;60.71;101235.69;4993129;28;20061;-69
2022/09/07 05:31:20;;;;;;;14.88;3.92;;;;;;;16.51;60.51;101205.16;4992757;28;20029;-69
2022/09/07 05:33:56;;;;;;;19.10;4.03;;;;;;;16.69;60.02;101223.03;4994851;28;20030;-69
2022/09/07 05:36:24;;;;;;;13.10;4.55;;;;;;;16.70;59.93;101235.75;4987375;28;20406;-69
2022/09/07 05:38:50;;;;;;;8.20;4.40;;;;;;;16.75;59.64;101222.31;4992018;28;20114;-69
2022/09/07 05:41:21;;;;;;;14.57;5.38;;;;;;;16.98;59.38;101206.63;4993888;28;20121;-69
2022/09/07 05:43:47;;;;;;;14.30;3.70;;;;;;;17.00;59.07;101220.97;4988205;28;20096;-70
2022/09/07 05:46:13;;;;;;;13.27;3.90;;;;;;;16.96;59.43;101230.63;4982373;28;20023;-70
2022/09/07 05:48:40;;;;;;;29.05;4.88;;;;;;;16.97;59.72;101210.41;4989370;28;20019;-70
2022/09/07 05:51:06;;;;;;;15.15;4.80;;;;;;;17.11;59.50;101194.16;4992791;28;20033;-70
2022/09/07 05:53:36;;;;;;;14.95;3.95;;;;;;;17.13;59.70;101198.38;4992280;28;20042;-70
2022/09/07 05:56:03;;;;;;;15.20;4.28;;;;;;;16.79;60.34;101186.22;4991640;28;20014;-70
2022/09/07 05:58:29;;;;;;;10.30;3.80;;;;;;;16.74;60.38;101187.81;4991748;28;20030;-70
2022/09/07 06:00:59;;;;;;;19.10;4.00;;;;;;;16.89;59.70;101196.88;4994082;28;20026;-71
2022/09/07 06:03:24;;;;;;;12.82;4.28;;;;;;;16.81;59.90;101184.13;5007368;28;20123;-70
2022/09/07 06:06:06;;;;;;;18.38;3.90;;;;;;;16.76;60.15;101188.50;5014682;28;20073;-70
2022/09/07 06:08:33;;;;;;;15.88;3.40;;;;;;;16.96;60.15;101184.13;4994010;28;20034;-70
2022/09/07 06:11:05;;;;;;;14.48;4.13;;;;;;;16.94;60.21;101180.69;4998625;28;20038;-70
2022/09/07 06:13:30;;;;;;;10.95;3.58;;;;;;;17.06;59.38;101187.38;4990985;28;20526;-70
2022/09/07 06:16:00;;;;;;;15.85;4.00;;;;;;;16.85;60.29;101179.13;4990738;28;20113;-71
2022/09/07 06:18:34;;;;;;;10.05;3.58;;;;;;;16.87;60.64;101187.97;5002869;28;20036;-70
2022/09/07 06:21:26;;;;;;;16.83;4.10;;;;;;;16.96;59.87;101186.84;5007062;28;20058;-70
2022/09/07 06:23:52;;;;;;;23.40;3.92;;;;;;;16.72;60.28;101188.00;4989026;28;20189;-70
2022/09/07 06:26:18;;;;;;;10.88;3.53;;;;;;;16.62;61.76;101194.78;4989836;28;20057;-70
2022/09/07 06:28:46;;;;;;;11.13;4.18;;;;;;;16.63;63.26;101193.75;4999971;28;20014;-70
2022/09/07 06:31:14;;;;;;;15.63;4.10;;;;;;;16.39;64.98;101190.28;4990744;28;20022;-70
2022/09/07 06:33:41;;;;;;;25.98;3.75;;;;;;;16.35;65.12;101188.94;4986444;28;20557;-70
2022/09/07 06:36:11;;;;;;;14.20;3.92;;;;;;;16.54;64.30;101193.84;5018412;28;20019;-70
2022/09/07 06:38:37;;;;;;;15.25;3.50;;;;;;;16.37;64.75;101197.81;4999665;28;20034;-70
2022/09/07 06:41:05;;;;;;;14.52;4.07;;;;;;;16.43;65.27;101191.59;4992043;28;20029;-70
2022/09/07 06:43:30;;;;;;;16.00;3.90;;;;;;;16.54;64.44;101198.47;5002490;28;20037;-71
2022/09/07 06:45:56;;;;;;;14.32;3.97;;;;;;;16.60;64.00;101202.31;4992044;28;20019;-71
2022/09/07 06:48:22;;;;;;;10.57;3.42;;;;;;;16.75;63.91;101203.19;4992608;28;20054;-71
2022/09/07 06:50:55;;;;;;;20.33;4.05;;;;;;;16.67;64.43;101200.53;4993049;28;20117;-71
2022/09/07 06:53:20;;;;;;;19.58;4.60;;;;;;;16.64;64.26;101201.75;4992722;28;20028;-71
2022/09/07 06:55:46;;;;;;;41.22;5.47;;;;;;;16.48;65.42;101211.00;4995815;28;20113;-71
2022/09/07 06:58:12;;;;;;;41.63;4.85;;;;;;;16.60;66.24;101199.59;4984278;28;20511;-71
2022/09/07 07:00:37;;;;;;;32.90;4.82;;;;;;;16.73;67.11;101194.31;4993903;28;20046;-71
2022/09/07 07:03:03;;;;;;;16.50;4.40;;;;;;;16.50;68.50;101206.22;4990376;28;20026;-71
2022/09/07 07:05:30;;;;;;;18.80;4.25;;;;;;;16.35;69.80;101188.94;4988215;28;20026;-72
2022/09/07 07:07:56;;;;;;;12.43;4.70;;;;;;;16.15;71.90;101193.28;4985285;28;20030;-71
2022/09/07 07:10:22;;;;;;;24.48;4.55;;;;;;;16.05;71.75;101192.72;5009356;28;20038;-72
2022/09/07 07:12:47;;;;;;;28.27;5.53;;;;;;;15.95;74.90;101193.81;4986631;28;20049;-73
2022/09/07 07:15:13;;;;;;;23.67;4.93;;;;;;;15.82;75.23;101193.59;4990085;28;20072;-74
2022/09/07 07:17:38;;;;;;;14.93;5.32;;;;;;;15.89;76.41;101189.09;5011552;28;20030;-73
2022/09/07 07:20:05;;;;;;;20.27;5.35;;;;;;;15.79;77.18;101188.50;5009623;28;20025;-74
2022/09/07 07:22:30;;;;;;;30.23;5.95;;;;;;;15.88;77.96;101184.66;4998711;28;20510;-73
2022/09/07 07:24:55;;;;;;;17.50;6.18;;;;;;;15.97;79.05;101191.75;5004973;28;20033;-73
2022/09/07 07:27:20;;;;;;;19.27;5.97;;;;;;;15.80;79.40;101190.19;4993962;28;20105;-73
2022/09/07 07:29:46;;;;;;;21.83;6.07;;;;;;;15.64;79.94;101179.41;4983815;28;20019;-73
2022/09/07 07:32:12;;;;;;;18.15;6.28;;;;;;;15.63;80.73;101185.91;5008419;28;20044;-73
2022/09/07 07:34:37;;;;;;;18.25;6.45;;;;;;;15.90;79.82;101179.84;4992498;28;20037;-73
2022/09/07 07:37:02;;;;;;;24.17;6.97;;;;;;;15.83;81.36;101187.09;4988665;28;20022;-74
2022/09/07 07:39:27;;;;;;;22.58;7.07;;;;;;;15.80;81.61;101173.81;4990125;28;20037;-74
2022/09/07 07:41:53;;;;;;;17.90;6.35;;;;;;;15.92;79.71;101172.34;5005660;28;20064;-74
2022/09/07 07:44:19;;;;;;;20.00;6.72;;;;;;;15.97;80.20;101175.38;5004351;28;20026;-74
2022/09/07 07:46:49;;;;;;;17.90;6.25;;;;;;;15.98;80.09;101166.13;4987565;28;20019;-74
2022/09/07 07:49:15;;;;;;;17.77;7.60;;;;;;;15.93;82.20;101157.66;4990471;28;20054;-74
2022/09/07 07:51:40;;;;;;;16.98;7.25;;;;;;;15.96;82.16;101129.94;5001126;28;20045;-74
2022/09/07 07:54:05;;;;;;;13.32;6.35;;;;;;;15.71;82.78;101126.66;4989322;28;20030;-74
2022/09/07 07:56:31;;;;;;;14.52;7.13;;;;;;;15.66;83.69;101126.34;4982542;28;20038;-74
2022/09/07 07:58:56;;;;;;;17.05;7.10;;;;;;;15.67;83.71;101108.09;4995519;28;20045;-74
2022/09/07 08:01:21;;;;;;;14.35;7.07;;;;;;;15.65;83.46;101107.44;4993357;28;20042;-74
2022/09/07 08:03:47;;;;;;;15.20;6.97;;;;;;;15.52;84.26;101115.34;4990483;28;20030;-74
2022/09/07 08:06:16;;;;;;;15.77;7.20;;;;;;;15.46;85.55;101109.63;4990451;28;20018;-73
2022/09/07 08:08:42;;;;;;;23.88;6.93;;;;;;;15.48;84.57;101110.28;5004163;28;20089;-74
2022/09/07 08:11:13;;;;;;;16.23;6.53;;;;;;;15.51;84.74;101114.50;4994578;28;20037;-74
2022/09/07 08:13:40;;;;;;;22.42;5.90;;;;;;;15.31;84.04;101125.09;5006173;28;20049;-74
2022/09/07 08:16:07;;;;;;;15.88;6.50;;;;;;;15.46;84.51;101106.88;4989373;28;20040;-74
2022/09/07 08:18:33;;;;;;;10.88;5.85;;;;;;;15.55;83.52;101109.53;4992593;28;20430;-73
2022/09/07 08:21:00;;;;;;;14.00;6.55;;;;;;;15.45;84.35;101110.66;4994370;28;20014;-71
2022/09/07 08:23:26;;;;;;;18.75;6.88;;;;;;;15.18;83.52;101108.47;4995675;28;20084;-72
2022/09/07 08:25:53;;;;;;;15.45;6.38;;;;;;;15.11;84.48;101107.50;5000889;28;20025;-72
2022/09/07 08:28:19;;;;;;;16.10;6.68;;;;;;;15.15;85.54;101108.84;4993597;28;20038;-72
2022/09/07 08:30:44;;;;;;;16.67;6.95;;;;;;;15.15;85.01;101097.94;4998335;28;20037;-72
2022/09/07 08:33:10;;;;;;;11.85;6.68;;;;;;;15.12;83.65;101103.75;4991487;28;20030;-71
2022/09/07 08:35:35;;;;;;;10.07;5.85;;;;;;;15.03;83.35;101116.63;4991439;28;20030;-72
2022/09/07 08:38:01;;;;;;;16.40;6.13;;;;;;;15.13;84.51;101116.38;4997082;28;20009;-72
2022/09/07 08:40:26;;;;;;;15.60;6.10;;;;;;;15.23;84.44;101122.44;4994035;28;20411;-72
2022/09/07 08:42:56;;;;;;;14.10;6.47;;;;;;;15.18;85.39;101124.84;4991041;28;20073;-71
2022/09/07 08:45:35;;;;;;;17.60;6.28;;;;;;;15.21;84.44;101108.13;5000529;28;20022;-72
2022/09/07 08:48:03;;;;;;;13.30;6.25;;;;;;;15.54;83.38;101114.16;4991920;28;20022;-72
2022/09/07 08:50:40;;;;;;;22.65;6.78;;;;;;;15.64;84.29;101108.44;4993618;28;20034;-73
2022/09/07 08:53:08;;;;;;;11.27;5.85;;;;;;;15.55;82.82;101098.63;4994286;28;20026;-74
2022/09/07 08:55:39;;;;;;;16.50;6.20;;;;;;;15.35;83.53;101106.47;4989477;28;20027;-73
2022/09/07 08:58:10;;;;;;;13.68;5.90;;;;;;;15.57;83.20;101118.38;4991870;28;20125;-72
2022/09/07 09:00:38;;;;;;;16.10;6.63;;;;;;;15.95;81.76;101128.25;4996917;28;20085;-72
2022/09/07 09:03:07;;;;;;;13.60;6.18;;;;;;;16.06;80.90;101128.84;4993639;28;20022;-72
2022/09/07 09:05:52;;;;;;;21.02;5.82;;;;;;;16.26;78.50;101146.38;4991804;28;20029;-72
2022/09/07 09:08:46;;;;;;;17.80;6.00;;;;;;;16.43;79.65;101153.34;5006562;28;20010;-72
2022/09/07 09:11:36;;;;;;;12.13;5.30;;;;;;;16.13;77.13;101162.56;5016403;28;20022;-72
2022/09/07 09:14:21;;;;;;;13.88;6.75;;;;;;;16.22;79.21;101161.44;4993599;28;20108;-72
2022/09/07 09:16:52;;;;;;;13.82;6.15;;;;;;;15.99;78.57;101167.84;4999831;28;20034;-72
2022/09/07 09:19:27;;;;;;;;;;;;;;;16.46;76.68;101155.69;4987941;28;20076;-72
2022/09/07 09:22:13;;;;;;;15.82;5.47;;;;;;;16.62;76.13;101171.00;4993607;28;19916;-72
2022/09/07 09:24:44;;;;;;;15.02;5.68;;;;;;;17.05;75.54;101158.31;4990488;28;20026;-72
2022/09/07 09:27:10;;;;;;;8.27;5.18;;;;;;;17.23;77.66;101154.31;4990523;28;20029;-71
2022/09/07 09:29:35;;;;;;;12.77;5.50;;;;;;;17.57;77.88;101151.66;4996292;28;20035;-72
2022/09/07 09:32:32;;;;;;;11.73;5.07;;;;;;;17.97;73.75;101146.53;4989096;28;20037;-71
2022/09/07 09:35:31;;;;;;;12.43;5.47;;;;;;;18.26;76.21;101155.59;4989052;28;20118;-72
2022/09/07 09:37:57;;;;;;;13.93;5.35;;;;;;;18.34;75.03;101158.16;4990238;28;20116;-71
2022/09/07 09:40:29;;;;;;;11.50;5.38;;;;;;;18.29;74.12;101157.91;4994764;28;20061;-71
2022/09/07 09:43:19;;;;;;;15.02;5.65;;;;;;;18.01;73.88;101158.81;4986776;28;20018;-71
2022/09/07 09:45:48;;;;;;;14.35;5.63;;;;;;;17.97;73.86;101160.22;4991015;28;20022;-71
2022/09/07 09:48:35;;;;;;;15.55;5.00;;;;;;;17.66;74.32;101165.22;4981297;28;20096;-71
2022/09/07 09:51:03;;;;;;;11.98;5.30;;;;;;;17.75;74.26;101158.59;4995845;28;20045;-72
2022/09/07 09:53:33;;;;;;;9.57;3.78;;;;;;;17.43;73.09;101155.34;5007280;28;20046;-73
2022/09/07 09:56:03;;;;;;;9.15;4.95;;;;;;;17.53;72.75;101155.84;4989747;28;20022;-72
2022/09/07 09:58:31;;;;;;;16.90;4.45;;;;;;;17.50;71.75;101161.72;5010746;28;20014;-72
2022/09/07 10:01:05;;;;;;;8.68;4.38;;;;;;;17.88;72.25;101147.75;5013130;28;20499;-70
2022/09/07 10:03:33;;;;;;;10.55;4.97;;;;;;;17.67;71.91;101150.47;4995007;28;20073;-71
2022/09/07 10:06:06;;;;;;;10.82;4.90;;;;;;;17.61;73.15;101158.47;4993238;28;20032;-70
2022/09/07 10:08:33;;;;;;;12.52;4.35;;;;;;;17.75;72.89;101147.66;4993734;28;20081;-71
2022/09/07 10:11:02;;;;;;;13.38;5.13;;;;;;;18.09;74.58;101150.41;4994431;28;20026;-71
2022/09/07 10:13:34;;;;;;;9.50;5.15;;;;;;;18.19;72.65;101144.56;5013624;28;20033;-71
2022/09/07 10:16:04;;;;;;;12.27;4.88;;;;;;;18.23;72.27;101145.00;4990176;28;20057;-71
2022/09/07 10:18:36;;;;;;;7.35;5.07;;;;;;;18.33;71.55;101145.50;4991959;28;20026;-70
2022/09/07 10:21:29;;;;;;;17.58;5.50;;;;;;;17.89;72.67;101149.44;4994950;28;20030;-70
2022/09/07 10:24:03;;;;;;;14.05;5.95;;;;;;;18.06;71.83;101150.84;4979039;28;20041;-70
2022/09/07 10:26:34;;;;;;;18.42;5.68;;;;;;;18.35;70.69;101140.66;4986811;28;20076;-70
2022/09/07 10:29:26;;;;;;;8.52;4.88;;;;;;;19.09;68.88;101140.75;4997587;28;20036;-71
2022/09/07 10:32:08;;;;;;;9.90;5.03;;;;;;;19.54;66.67;101146.50;4986915;28;20030;-70
2022/09/07 10:35:02;;;;;;;11.65;5.65;;;;;;;19.96;66.63;101139.78;4992609;28;20041;-71
2022/09/07 10:37:51;;;;;;;11.38;5.07;;;;;;;20.22;66.01;101136.13;4988768;28;20395;-71
2022/09/07 10:40:27;;;;;;;12.85;5.25;;;;;;;20.42;65.36;101129.72;4986239;28;20031;-72
2022/09/07 10:43:31;;;;;;;15.13;5.82;;;;;;;20.69;62.79;101131.34;5012088;28;20044;-72
2022/09/07 10:46:05;;;;;;;9.98;4.88;;;;;;;20.27;63.87;101133.56;4986849;28;20093;-72
2022/09/07 10:48:51;;;;;;;13.07;5.53;;;;;;;20.48;63.32;101139.91;5002479;28;20033;-72
2022/09/07 10:51:28;;;;;;;11.60;5.32;;;;;;;21.18;62.42;101135.28;4987632;28;20058;-73
2022/09/07 10:54:15;;;;;;;11.35;5.55;;;;;;;21.18;61.52;101145.47;4993572;28;20085;-73
2022/09/07 10:56:46;;;;;;;14.05;6.15;;;;;;;21.64;60.58;101146.00;4993588;28;20041;-73
2022/09/07 10:59:30;;;;;;;11.30;5.55;;;;;;;21.36;60.82;101138.16;4996378;28;20109;-71
2022/09/07 11:02:08;;;;;;;12.85;5.43;;;;;;;21.88;59.14;101141.56;4987286;28;20259;-71
2022/09/07 11:04:33;;;;;;;10.75;5.47;;;;;;;22.45;58.77;101125.72;4984983;28;20045;-71
2022/09/07 11:07:25;;;;;;;9.27;4.28;;;;;;;22.74;57.92;101120.44;4990771;28;20022;-71
2022/09/07 11:10:01;;;;;;;18.20;4.70;;;;;;;23.27;56.37;101116.94;4990732;28;20507;-72
2022/09/07 11:12:31;;;;;;;10.57;5.07;;;;;;;23.03;56.43;101127.09;5008985;28;20121;-69
2022/09/07 11:15:11;;;;;;;9.10;4.70;;;;;;;23.11;55.28;101124.00;4992519;28;20127;-72
2022/09/07 11:17:47;;;;;;;8.60;5.00;;;;;;;23.54;54.21;101123.75;4989015;28;20026;-71
2022/09/07 11:20:42;;;;;;;10.57;4.53;;;;;;;23.46;54.83;101129.63;4988298;28;20036;-71
2022/09/07 11:23:20;;;;;;;11.88;4.25;;;;;;;23.68;55.53;101118.03;4988892;28;20030;-72
2022/09/07 11:25:56;;;;;;;11.40;4.43;;;;;;;23.38;55.78;101118.91;4989514;28;20058;-71
2022/09/07 11:28:28;;;;;;;9.95;5.00;;;;;;;23.78;54.37;101107.22;4990099;28;20120;-72
2022/09/07 11:30:59;;;;;;;;;;;;;;;23.52;55.14;101098.25;4991747;28;20129;-72
2022/09/07 11:33:30;;;;;;;10.90;4.43;;;;;;;24.03;53.99;101099.50;5003034;28;19910;-72
2022/09/07 11:36:04;;;;;;;7.30;5.00;;;;;;;24.10;53.19;101089.16;5015501;28;20084;-73
2022/09/07 11:38:32;;;;;;;11.65;4.80;;;;;;;24.15;54.71;101085.66;5014169;28;20029;-72